Time;durP1;ratioP1;P1;durP2;ratioP2;P2;SDS_P1;SDS_P2;PMS_P1;PMS_P2;Temp;Humidity;BMP_temperature;BMP_pressure;BME280_temperature;BME280_humidity;BME280_pressure;Samples;Min_cycle;Max_cycle;Signal;HPM_P1;HPM_P2
2022/05/28 00:00:57;;;;;;;5.07;3.47;;;;;;;15.54;88.58;99796.13;31310761;28;20462;-80
2022/05/28 00:15:59;;;;;;;6.93;3.60;;;;;;;15.44;89.26;99792.63;31318458;28;20049;-80
2022/05/28 00:31:01;;;;;;;7.03;3.13;;;;;;;15.33;91.32;99776.72;31322744;28;20056;-80
2022/05/28 00:46:07;;;;;;;5.13;3.83;;;;;;;15.30;92.57;99768.66;31327444;28;20049;-82
2022/05/28 01:01:11;;;;;;;5.87;3.63;;;;;;;15.27;91.62;99762.13;31220271;28;20484;-80
2022/05/28 01:16:27;;;;;;;4.73;3.00;;;;;;;15.17;92.47;99755.16;31169343;28;20049;-80
2022/05/28 01:31:31;;;;;;;4.53;3.40;;;;;;;15.12;92.40;99750.28;31195118;28;20052;-81
2022/05/28 01:46:36;;;;;;;6.77;3.53;;;;;;;15.04;92.34;99738.16;31253486;28;20060;-80
2022/05/28 02:01:39;;;;;;;6.10;3.33;;;;;;;14.98;92.74;99740.75;31332179;28;20057;-80
2022/05/28 02:17:22;;;;;;;5.50;3.50;;;;;;;15.16;91.82;99729.03;31341713;28;20045;-80
2022/05/28 02:32:24;;;;;;;4.87;3.20;;;;;;;15.25;92.42;99714.59;31345497;28;20075;-79
2022/05/28 02:47:26;;;;;;;6.27;3.07;;;;;;;15.43;92.35;99724.72;31323200;28;20428;-79
2022/05/28 03:02:28;;;;;;;3.83;3.03;;;;;;;15.57;91.28;99718.63;31320216;28;20073;-79
2022/05/28 03:17:30;;;;;;;5.70;3.30;;;;;;;15.73;91.70;99728.44;31329175;28;20039;-81
2022/05/28 03:32:32;;;;;;;7.57;2.90;;;;;;;15.88;91.03;99741.00;31323776;28;20049;-81
2022/05/28 03:47:34;;;;;;;3.53;2.85;;;;;;;16.18;90.25;99768.53;31321116;28;20502;-80
2022/05/28 04:02:36;;;;;;;4.82;3.30;;;;;;;16.62;89.31;99766.75;31328371;28;20136;-80
2022/05/28 04:17:38;;;;;;;5.75;3.70;;;;;;;17.17;88.00;99771.84;31329040;28;20392;-82
2022/05/28 04:32:40;;;;;;;6.43;2.78;;;;;;;18.25;83.86;99767.59;31314670;28;20045;-82
2022/05/28 04:47:42;;;;;;;6.47;2.70;;;;;;;19.08;79.37;99776.13;31321536;28;20083;-82
2022/05/28 05:02:44;;;;;;;5.80;3.53;;;;;;;19.90;75.58;99785.63;31303626;28;20065;-82
2022/05/28 05:17:46;;;;;;;7.93;2.83;;;;;;;20.54;71.72;99770.53;31332597;28;20044;-81
2022/05/28 05:32:48;;;;;;;3.80;2.40;;;;;;;21.25;69.11;99774.03;31364518;28;20052;-83
2022/05/28 05:47:50;;;;;;;4.93;2.80;;;;;;;21.30;67.07;99781.56;31360250;28;20068;-83
2022/05/28 06:02:52;;;;;;;6.45;3.60;;;;;;;22.27;64.83;99792.09;31343595;28;20052;-82
2022/05/28 06:17:54;;;;;;;5.25;3.55;;;;;;;22.55;63.15;99784.47;31351102;28;20053;-83
2022/05/28 06:32:56;;;;;;;4.07;3.03;;;;;;;22.30;63.87;99791.09;31346955;28;20490;-82
2022/05/28 06:47:59;;;;;;;4.47;2.58;;;;;;;22.45;63.77;99799.84;31326808;28;20051;-82
2022/05/28 07:03:01;;;;;;;7.10;3.03;;;;;;;23.63;61.45;99811.09;31340819;28;20419;-84
2022/05/28 07:18:03;;;;;;;5.70;3.10;;;;;;;24.31;58.60;99795.41;31351482;28;20131;-83
2022/05/28 07:33:05;;;;;;;10.07;3.00;;;;;;;24.36;57.45;99780.72;31371614;28;20056;-83
2022/05/28 07:48:08;;;;;;;7.20;2.60;;;;;;;25.41;54.78;99786.19;31368033;28;20041;-80
2022/05/28 08:03:12;;;;;;;8.38;3.80;;;;;;;25.02;54.14;99784.00;31212545;28;20855;-80
2022/05/28 08:18:17;;;;;;;3.38;2.58;;;;;;;24.37;55.56;99771.13;31218068;28;20046;-81
2022/05/28 08:33:20;;;;;;;3.97;2.40;;;;;;;23.33;58.34;99750.88;31178408;28;20049;-81
2022/05/28 08:48:54;;;;;;;6.90;3.05;;;;;;;24.55;57.39;99758.59;31202708;28;20477;-84
2022/05/28 09:04:00;;;;;;;7.30;2.58;;;;;;;26.25;52.27;99782.00;31358203;28;20135;-83
2022/05/28 09:19:16;;;;;;;5.80;2.05;;;;;;;26.98;49.39;99784.13;31321638;28;20040;-84
2022/05/28 09:35:02;;;;;;;2.85;2.47;;;;;;;27.73;47.57;99761.09;31336014;28;20143;-82
2022/05/28 09:50:05;;;;;;;5.50;2.10;;;;;;;28.41;45.80;99760.81;31310263;28;20055;-83
2022/05/28 10:05:16;;;;;;;4.65;2.28;;;;;;;29.25;43.76;99750.72;31330134;28;20052;-80
2022/05/28 10:20:20;;;;;;;6.18;2.20;;;;;;;29.97;40.67;99739.19;31333101;28;20095;-81
2022/05/28 10:35:27;;;;;;;10.50;2.22;;;;;;;30.36;39.93;99735.00;31338867;28;20060;-79
2022/05/28 10:50:48;;;;;;;3.78;1.70;;;;;;;30.60;38.00;99730.81;31337137;28;20049;-80
2022/05/28 11:06:20;;;;;;;4.53;2.42;;;;;;;31.02;36.51;99719.00;31356729;28;20059;-81
2022/05/28 11:21:49;;;;;;;6.60;1.90;;;;;;;29.21;38.79;99708.41;31367480;28;20419;-82
2022/05/28 11:36:57;;;;;;;5.88;2.05;;;;;;;27.31;41.85;99708.13;31337084;28;20396;-80
2022/05/28 11:52:17;;;;;;;3.65;1.90;;;;;;;26.20;44.30;99691.06;31348320;28;20048;-79
2022/05/28 12:07:40;;;;;;;3.30;2.28;;;;;;;25.68;46.05;99684.22;31330290;28;20109;-80
2022/05/28 12:23:01;;;;;;;6.47;3.00;;;;;;;25.65;50.33;99715.84;31349057;28;20475;-80
2022/05/28 12:38:09;;;;;;;7.82;3.67;;;;;;;24.76;57.47;99727.03;31295176;28;20045;-82
2022/05/28 12:53:16;;;;;;;5.05;3.25;;;;;;;23.91;65.26;99742.34;31286433;28;20471;-79
2022/05/28 13:08:32;;;;;;;4.05;2.97;;;;;;;23.50;69.01;99759.06;31335538;28;20102;-82
2022/05/28 13:24:02;;;;;;;5.30;3.75;;;;;;;23.26;71.28;99754.19;31361437;28;20428;-78
2022/05/28 13:39:05;;;;;;;8.20;4.63;;;;;;;23.70;69.14;99744.06;31369182;28;20048;-78
2022/05/28 13:54:11;;;;;;;7.55;3.75;;;;;;;23.77;65.50;99740.72;31378072;28;20053;-78
2022/05/28 14:09:13;;;;;;;5.07;3.35;;;;;;;23.71;61.60;99748.31;31336661;28;20505;-78
2022/05/28 14:24:28;;;;;;;5.63;3.57;;;;;;;23.22;61.65;99753.72;31354277;28;20049;-77
2022/05/28 14:39:41;;;;;;;6.90;3.33;;;;;;;22.96;61.44;99762.44;31342553;28;20041;-78
2022/05/28 14:54:58;;;;;;;6.78;3.40;;;;;;;22.85;59.76;99762.50;31307528;28;20505;-79
2022/05/28 15:10:01;;;;;;;5.43;3.25;;;;;;;22.86;59.47;99785.41;31325114;28;20430;-77
2022/05/28 15:25:03;;;;;;;4.27;2.63;;;;;;;22.63;58.56;99766.09;31306186;28;20494;-77
2022/05/28 15:40:07;;;;;;;6.27;3.23;;;;;;;22.27;58.87;99787.31;31307454;28;20520;-75
2022/05/28 15:55:09;;;;;;;8.70;2.80;;;;;;;21.92;59.88;99804.44;31324006;28;20049;-77
2022/05/28 16:10:14;;;;;;;5.00;2.80;;;;;;;21.86;59.51;99791.88;31308546;28;20047;-77
2022/05/28 16:25:18;;;;;;;6.13;2.47;;;;;;;21.58;59.46;99817.50;31354586;28;20057;-76
2022/05/28 16:40:20;;;;;;;6.03;2.72;;;;;;;21.33;60.06;99837.78;31324130;28;20441;-75
2022/05/28 16:55:22;;;;;;;5.88;2.28;;;;;;;21.05;60.10;99830.13;31317386;28;20057;-77
2022/05/28 17:10:24;;;;;;;7.53;2.75;;;;;;;20.69;61.74;99851.06;31292790;28;20055;-78
2022/05/28 17:25:29;;;;;;;4.10;2.60;;;;;;;20.43;62.61;99855.94;31330745;28;20064;-76
2022/05/28 17:40:32;;;;;;;7.32;4.88;;;;;;;20.19;63.60;99863.75;31335162;28;20055;-79
2022/05/28 17:55:54;;;;;;;6.70;4.15;;;;;;;19.89;65.29;99872.28;31333324;28;20410;-78
2022/05/28 18:10:56;;;;;;;11.27;6.07;;;;;;;19.68;65.78;99881.84;31343803;28;20049;-77
2022/05/28 18:25:59;;;;;;;8.38;3.17;;;;;;;19.55;66.39;99906.25;31323327;28;20145;-77
2022/05/28 18:41:11;;;;;;;5.13;2.90;;;;;;;19.37;66.72;99908.00;31323614;28;20041;-77
2022/05/28 18:56:17;;;;;;;9.35;3.85;;;;;;;19.19;67.06;99941.31;31338560;28;20045;-78
2022/05/28 19:11:19;;;;;;;7.00;3.15;;;;;;;19.04;66.63;99937.88;31315778;28;20132;-77
2022/05/28 19:41:45;;;;;;;6.25;3.40;;;;;;;18.83;66.75;99959.09;31342298;28;20133;-77
2022/05/28 19:56:47;;;;;;;4.10;2.42;;;;;;;18.57;67.74;99964.44;31281142;28;20049;-77
2022/05/28 20:11:49;;;;;;;4.22;2.90;;;;;;;18.48;67.89;99956.28;31211763;28;20069;-76
2022/05/28 20:26:51;;;;;;;4.00;2.67;;;;;;;18.40;67.68;99960.66;31210820;28;20049;-77
2022/05/28 20:41:53;;;;;;;3.30;2.13;;;;;;;18.20;68.90;99963.31;31202584;28;20050;-77
2022/05/28 20:56:55;;;;;;;5.72;2.15;;;;;;;18.21;69.09;99945.59;31252224;28;20048;-77
2022/05/28 21:11:57;;;;;;;4.45;2.58;;;;;;;18.14;69.67;99941.25;31309099;28;20053;-75
2022/05/28 21:42:20;;;;;;;6.05;2.65;;;;;;;17.66;72.90;99937.91;31362021;28;20051;-77
2022/05/28 21:57:22;;;;;;;5.13;3.15;;;;;;;17.75;72.35;99951.53;31427709;28;20078;-77
2022/05/28 22:12:23;;;;;;;7.70;2.70;;;;;;;17.87;69.56;99947.78;31388465;28;20045;-77
2022/05/28 22:27:26;;;;;;;4.97;2.42;;;;;;;17.83;68.12;99963.66;31317135;28;20052;-75
2022/05/28 22:42:28;;;;;;;2.60;2.03;;;;;;;17.76;67.50;99958.53;31305941;28;20487;-76
2022/05/28 22:57:30;;;;;;;4.55;2.15;;;;;;;17.57;67.97;99957.91;31312614;28;20482;-75
2022/05/28 23:12:32;;;;;;;3.05;2.03;;;;;;;17.22;69.60;99944.00;31339630;28;20047;-77
2022/05/28 23:27:33;;;;;;;3.97;1.95;;;;;;;17.24;70.08;99952.50;31320980;28;20056;-75
2022/05/28 23:42:35;;;;;;;3.15;1.90;;;;;;;17.54;67.33;99936.13;31304936;28;20048;-77
2022/05/28 23:57:37;;;;;;;5.82;1.65;;;;;;;17.57;66.58;99913.22;31297597;28;20053;-76
